SLCB/CBB METAR and TAF weather

Enter ICAO airport designator
Station Type Date Time Source
SLCB METAR 2019/04/19 10:00 UTC NOAA

SLCB 191000Z 00000KT 9999 NSC 10/07 Q1024


Station Type Date Time Source
SLCB Decoded METAR 2019/04/19 10:00 UTC NOAA

Cochabamba, Bolivia (SLCB) 17-25S 066-11W 2570M
Apr 19, 2019 - 06:00 AM EDT / 2019.04.19 1000 UTC
Wind: Calm:0
Visibility: greater than 7 mile(s):0
Temperature: 50 F (10 C)
Dew Point: 44 F (7 C)
Relative Humidity: 81%
Pressure (altimeter): 30.24 in. Hg (1024 hPa)
ob: SLCB 191000Z 00000KT 9999 NSC 10/07 Q1024
cycle: 10

Station Type Date Time Source
SLCB TAF 2019/04/19 06:47 UTC NOAA

TAF SLCB 190400Z 1906/2006 00000KT 9999 NSC TX31/1919Z TN10/1911Z
BECMG 1916/1918 28010KT FEW030 FEW033CB

Example: see airport list